Latest Coastal Weather Observations for Robe Airport

IDS60701

Issued at 5:01 pm CST Friday 28 August 2015 (issued every 10 minutes, with the page automatically refreshed every 10 minutes)

About coastal observations | Map of coastal stations | Coastal observations for SA | Marine services | Other Formats
Station Details ID: 026105 Name: ROBE AIRFIELD Lat: -37.18 Lon: 139.81 Height: 3.0 m
Data from the previous 72 hours. | See also: Recent months at Robe Airport
Date/Time
CST
Temp

°C
Wind Pressure Rain
since 9am
mm
Weather Cloud Vis
km
Sea
Height
m
Swell
Dir
 
Speed
knots
Gust
knots
hPa Trend Height
m
Period
s
Dir
28/05:00pm 11.7 SW 6 9 1027.1 - 0.8 - - - - - - -
28/04:30pm 12.1 SSW 8 11 1027.2 - 0.8 - - - - - - -
28/04:00pm 12.3 SSW 9 14 1027.2 - 0.6 - - - - - - -
28/03:30pm 12.5 SSW 8 12 1027.3 - 0.6 - - - - - - -
28/03:00pm 12.4 SSW 6 9 1027.5 - 0.6 Recent precip. - - - - - -
28/02:30pm 11.0 S 8 12 1027.8 - 0.6 - - - - - - -
28/02:00pm 12.3 SW 7 11 1028.0 - 0.0 - - - - - - -
28/01:30pm 13.1 SSW 7 10 1028.1 - 0.0 - - - - - - -
28/01:00pm 12.7 SSW 10 14 1028.3 - 0.0 - - - - - - -
28/12:30pm 13.2 SSW 9 13 1028.7 - 0.0 - - - - - - -
28/12:00pm 13.9 SSW 8 12 1029.1 - 0.0 - - - - - - -
28/11:30am 13.4 S 6 10 1029.3 - 0.0 - - - - - - -
28/11:00am 12.7 S 9 13 1029.6 - 0.0 - - - - - - -
28/10:30am 12.5 S 8 13 1029.8 - 0.0 - - - - - - -
28/10:00am 13.2 SSE 9 13 1029.7 - 0.0 - - - - - - -
28/09:30am 12.5 S 8 12 1029.8 - 0.0 - - - - - - -
28/09:00am 12.2 SSE 5 7 1029.8 - 3.6 - - - - - - -
28/08:30am 11.2 S 3 5 1029.8 - 3.6 - - - - - - -
28/08:00am 10.1 SSE 1 2 1029.6 - 3.6 - - - - - - -
28/07:30am 9.9 SSE 2 3 1029.3 - 3.6 - - - - - - -
28/07:00am 9.8 SSE 5 7 1029.2 - 3.6 - - - - - - -
28/06:30am 9.5 S 6 8 1029.0 - 3.6 - - - - - - -
28/06:00am 10.1 S 8 11 1028.6 - 3.6 - - - - - - -
28/05:30am 9.3 S 5 8 1028.4 - 3.6 - - - - - - -
28/05:00am 9.9 S 6 9 1028.2 - 3.6 - - - - - - -
28/04:30am 9.9 S 7 9 1028.0 - 3.6 - - - - - - -
28/04:00am 9.6 S 9 12 1027.8 - 3.6 - - - - - - -
28/03:30am 9.2 SSE 8 11 1027.7 - 3.6 - - - - - - -
28/03:00am 9.7 S 8 11 1027.8 - 3.6 - - - - - - -
28/02:30am 10.0 S 7 11 1027.9 - 3.6 - - - - - - -
28/02:00am 9.5 SSE 6 7 1028.2 - 3.6 - - - - - - -
28/01:30am 9.0 SSE 7 10 1028.4 - 3.6 - - - - - - -
28/01:00am 9.0 SSE 7 9 1028.5 - 3.6 - - - - - - -
28/12:30am 9.6 S 8 10 1028.3 - 3.6 - - - - - - -
28/12:00am 9.8 S 8 11 1028.4 - 3.6 - - - - - - -
 
Date/Time
CST
Temp

°C
Wind Pressure Rain
since 9am
mm
Weather Cloud Vis
km
Sea
Height
m
Swell
Dir
 
Speed
knots
Gust
knots
hPa Trend Height
m
Period
s
Dir
27/11:30pm 10.4 S 10 14 1028.4 - 3.6 - - - - - - -
27/11:00pm 10.7 S 10 14 1028.3 - 3.6 - - - - - - -
27/10:30pm 10.7 S 10 15 1028.2 - 3.6 - - - - - - -
27/10:00pm 10.9 S 10 15 1028.1 - 3.6 - - - - - - -
27/09:30pm 10.4 SSE 9 14 1028.0 - 3.6 - - - - - - -
27/09:00pm 10.9 SSE 8 12 1027.9 - 3.6 - - - - - - -
27/08:30pm 10.7 SSE 9 11 1027.8 - 3.6 - - - - - - -
27/08:00pm 10.7 SSE 10 13 1027.6 - 3.6 - - - - - - -
27/07:30pm 10.5 SSE 8 13 1027.3 - 3.6 - - - - - - -
27/07:00pm 10.7 SSE 8 12 1027.0 - 3.6 - - - - - - -
27/06:30pm 10.7 SSE 9 14 1026.6 - 3.4 - - - - - - -
27/06:00pm 10.7 SSE 14 19 1026.1 - 3.4 - - - - - - -
27/05:30pm 11.2 S 14 20 1025.6 - 3.4 - - - - - - -
27/05:00pm 11.8 S 16 22 1025.2 - 3.4 - - - - - - -
27/04:30pm 12.1 S 17 23 1024.8 - 3.4 - - - - - - -
27/04:00pm 12.6 S 17 23 1024.7 - 3.4 - - - - - - -
27/03:30pm 12.5 SSW 19 23 1024.5 - 3.4 - - - - - - -
27/03:00pm 12.4 S 18 23 1024.4 - 3.4 - - - - - - -
27/02:30pm 13.0 SSW 19 24 1024.1 - 3.4 - - - - - - -
27/02:00pm 13.3 SSW 17 23 1024.2 - 3.4 - - - - - - -
27/01:30pm 13.4 SSW 18 23 1024.2 - 3.4 - - - - - - -
27/01:00pm 13.2 SSW 18 26 1024.4 - 3.4 - - - - - - -
27/12:30pm 11.6 SSW 13 19 1024.6 - 3.2 - - - - - - -
27/12:00pm 11.6 SSW 14 19 1024.7 - 3.2 Recent precip. - - - - - -
27/11:30am 11.9 SSW 13 18 1024.8 - 3.0 - - - - - - -
27/11:00am 11.4 SSW 14 19 1025.1 - 2.2 - - - - - - -
27/10:30am 11.6 SSW 13 20 1025.0 - 1.0 - - - - - - -
27/10:00am 12.0 SSW 14 18 1025.0 - 1.0 - - - - - - -
27/09:30am 11.1 SSW 11 16 1024.9 - 1.0 - - - - - - -
27/09:00am 11.7 S 16 23 1024.7 - 0.6 - - - - - - -
27/08:30am 11.7 SSW 14 19 1024.6 - 0.6 - - - - - - -
27/08:00am 10.7 SSW 8 11 1024.5 - 0.6 - - - - - - -
27/07:30am 9.8 SSW 5 8 1024.0 - 0.4 - - - - - - -
27/07:00am 9.3 SSW 5 7 1023.8 - 0.4 - - - - - - -
27/06:30am 9.8 SSW 6 9 1023.3 - 0.4 - - - - - - -
27/06:00am 9.4 SSW 5 14 1023.1 - 0.0 - - - - - - -
27/05:30am 6.1 SSW 1 3 1022.9 - 0.0 - - - - - - -
27/05:00am 5.2 CALM 0 0 1022.7 - 0.0 - - - - - - -
27/04:30am 4.4 CALM 0 0 1022.5 - 0.0 - - - - - - -
27/04:00am 5.3 CALM 0 0 1022.5 - 0.0 - - - - - - -
27/03:30am 7.3 SSW 2 3 1022.4 - 0.0 - - - - - - -
27/03:00am 6.1 SW 2 3 1022.5 - 0.0 - - - - - - -
27/02:30am 4.0 SSW 2 2 1022.7 - 0.0 - - - - - - -
27/02:00am 5.4 NNW 1 4 1023.0 - 0.0 - - - - - - -
27/01:30am 5.7 NNW 2 2 1023.3 - 0.0 - - - - - - -
27/01:00am 6.4 NNW 2 2 1023.3 - 0.0 - - - - - - -
27/12:30am 7.1 NNW 2 3 1023.5 - 0.0 - - - - - - -
27/12:00am 7.6 NNW 2 3 1023.7 - 0.0 - - - - - - -
 
Date/Time
CST
Temp

°C
Wind Pressure Rain
since 9am
mm
Weather Cloud Vis
km
Sea
Height
m
Swell
Dir
 
Speed
knots
Gust
knots
hPa Trend Height
m
Period
s
Dir
26/11:30pm 7.5 NNW 1 3 1023.7 - 0.0 - - - - - - -
26/11:00pm 7.5 CALM 0 0 1023.9 - 0.0 - - - - - - -
26/10:30pm 8.7 NNW 1 2 1024.1 - 0.0 - - - - - - -
26/10:00pm 8.8 NNW 5 8 1024.2 - 0.0 - - - - - - -
26/09:30pm 9.3 ESE 1 2 1023.8 - 0.0 - - - - - - -
26/09:00pm 9.8 ESE 3 4 1023.9 - 0.0 - - - - - - -
26/08:30pm 10.3 SSE 3 5 1023.8 - 0.0 - - - - - - -
26/08:00pm 10.5 S 5 5 1023.6 - 0.0 - - - - - - -
26/07:30pm 10.6 S 3 3 1023.6 - 0.0 - - - - - - -
26/07:00pm 10.9 S 5 6 1023.5 - 0.0 - - - - - - -
26/06:30pm 11.1 S 4 5 1023.6 - 0.0 - - - - - - -
26/06:00pm 11.5 S 4 5 1023.5 - 0.0 - - - - - - -
26/05:30pm 12.1 S 4 6 1023.4 - 0.0 - - - - - - -
26/05:00pm 12.4 SSW 5 7 1023.2 - 0.0 - - - - - - -
26/04:30pm 12.9 SSW 5 7 1023.0 - 0.0 - - - - - - -
26/04:00pm 13.1 SSW 4 6 1023.0 - 0.0 - - - - - - -
26/03:30pm 12.4 SW 5 7 1023.1 - 0.0 - - - - - - -
26/03:00pm 12.9 SSW 5 7 1023.2 - 0.0 - - - - - - -
26/02:30pm 13.3 SW 6 9 1023.4 - 0.0 - - - - - - -
26/02:00pm 13.7 SW 7 10 1023.4 - 0.0 - - - - - - -
26/01:30pm 13.9 SW 6 9 1023.5 - 0.0 - - - - - - -
26/01:00pm 14.2 WSW 3 6 1023.7 - 0.0 - - - - - - -
26/12:30pm 14.1 WSW 4 7 1024.0 - 0.0 - - - - - - -
26/12:00pm 14.1 S 2 3 1024.5 - 0.0 - - - - - - -
26/11:30am 13.1 SSE 3 6 1025.0 - 0.0 - - - - - - -
26/11:00am 13.8 NNE 2 2 1025.3 - 0.0 - - - - - - -
26/10:30am 12.5 E 3 6 1025.6 - 0.0 - - - - - - -
26/10:00am 11.7 E 4 5 1025.7 - 0.0 - - - - - - -
26/09:30am 10.9 ESE 5 6 1026.0 - 0.0 - - - - - - -
26/09:00am 10.0 ESE 5 7 1026.1 - 0.0 - - - - - - -
26/08:30am 9.0 SE 7 9 1026.1 - 0.0 - - - - - - -
26/08:00am 8.3 SE 4 6 1026.1 - 0.0 - - - - - - -
26/07:30am 7.7 SE 4 5 1026.1 - 0.0 - - - - - - -
26/07:00am 6.7 SE 4 4 1026.0 - 0.0 - - - - - - -
26/06:30am 6.0 SE 3 4 1026.0 - 0.0 - - - - - - -
26/06:00am 5.9 SE 3 4 1025.9 - 0.0 - - - - - - -
26/05:30am 5.7 SE 4 5 1026.0 - 0.0 - - - - - - -
26/05:00am 5.2 SSE 3 4 1026.0 - 0.0 - - - - - - -
26/04:30am 5.9 SSE 3 3 1025.9 - 0.0 - - - - - - -
26/04:00am 6.2 SE 3 4 1025.8 - 0.0 - - - - - - -
26/03:30am 6.9 SE 4 5 1025.8 - 0.0 - - - - - - -
26/03:00am 7.0 SSE 4 6 1026.1 - 0.0 - - - - - - -
26/02:30am 6.9 SSE 4 5 1026.4 - 0.0 - - - - - - -
26/02:00am 7.4 SSE 5 7 1026.7 - 0.0 - - - - - - -
26/01:30am 7.3 SSE 4 7 1026.9 - 0.0 - - - - - - -
26/01:00am 7.8 SSE 5 7 1027.1 - 0.0 - - - - - - -
26/12:30am 7.7 SSE 6 8 1027.3 - 0.0 - - - - - - -
26/12:00am 7.6 SSE 5 7 1027.4 - 0.0 - - - - - - -
 
Date/Time
CST
Temp

°C
Wind Pressure Rain
since 9am
mm
Weather Cloud Vis
km
Sea
Height
m
Swell
Dir
 
Speed
knots
Gust
knots
hPa Trend Height
m
Period
s
Dir
25/11:30pm 7.5 SSE 5 7 1027.5 - 0.0 - - - - - - -
25/11:00pm 7.3 SSE 6 7 1027.7 - 0.0 - - - - - - -
25/10:30pm 7.3 SSE 6 8 1027.9 - 0.0 - - - - - - -
25/10:00pm 7.6 SSE 5 7 1028.1 - 0.0 - - - - - - -
25/09:30pm 8.1 SE 6 8 1028.2 - 0.0 - - - - - - -
25/09:00pm 8.3 SE 7 9 1028.1 - 0.0 - - - - - - -
25/08:30pm 8.8 SE 8 11 1028.2 - 0.0 - - - - - - -
25/08:00pm 8.4 SE 6 9 1028.3 - 0.0 - - - - - - -
25/07:30pm 9.1 SE 8 12 1028.1 - 0.0 - - - - - - -
25/07:00pm 9.6 SSE 10 16 1027.9 - 0.0 - - - - - - -
25/06:30pm 9.9 SSE 10 14 1027.7 - 0.0 - - - - - - -
25/06:00pm 10.5 SSE 11 17 1027.4 - 0.0 - - - - - - -
25/05:30pm 11.0 SSE 13 20 1027.2 - 0.0 - - - - - - -

Other Formats:

Comma delimited format used in spreadsheet applications
http://www.bom.gov.au/fwo/IDS60701/IDS60701.95816.axf

JavaScript Object Notation format (JSON) in row-major order
http://www.bom.gov.au/fwo/IDS60701/IDS60701.95816.json